Terminal Aerodrome Forecast
Issued by NWS Tiyan, Guam

Home | Current Version | Previous Version | Text Only | Print | Product List | Glossary On
Versions: 1 2 3 4 5 6 7 8 9 10 11 12 13 14 15 16 17 18 19 20 21 22 23
679
FTPQ31 PGUM 280525
TAFGUM
TAF
PGUM 280525Z 2806/2912 VRB05KT P6SM VCTS SCT018CB BKN050 OVC070
      TEMPO 2806/2808 3SM TSRA SCT016CB BKN025
     FM281000 13005KT P6SM VCSH FEW018 SCT060=

USA.gov is the U.S. government's official web portal to all federal, state and local government web resources and services.